Time;durP1;ratioP1;P1;durP2;ratioP2;P2;SDS_P1;SDS_P2;PMS_P1;PMS_P2;Temp;Humidity;BMP_temperature;BMP_pressure;BME280_temperature;BME280_humidity;BME280_pressure;Samples;Min_cycle;Max_cycle;Signal;HPM_P1;HPM_P2
2024/01/17 00:04:14;;;;;;;6.13;5.07;;;;;;;20.43;47.62;99887.59;41290029;28;20897;-73
2024/01/17 00:24:16;;;;;;;8.00;5.28;;;;;;;20.38;47.60;99881.88;41378177;28;20497;-72
2024/01/17 00:44:18;;;;;;;7.72;5.63;;;;;;;20.33;47.82;99873.53;41396785;28;20065;-75
2024/01/17 01:04:19;;;;;;;6.00;5.10;;;;;;;20.26;47.82;99857.44;41415682;28;20042;-74
2024/01/17 01:24:19;;;;;;;7.38;5.65;;;;;;;20.24;47.67;99866.41;41405205;28;20466;-73
2024/01/17 01:44:20;;;;;;;7.55;5.70;;;;;;;20.14;47.96;99830.34;41405123;28;20104;-74
2024/01/17 02:04:21;;;;;;;6.95;5.28;;;;;;;20.10;47.86;99794.78;41367929;28;20037;-74
2024/01/17 02:24:23;;;;;;;6.95;5.45;;;;;;;20.10;47.54;99786.03;41395364;28;20041;-74
2024/01/17 02:44:23;;;;;;;7.65;5.72;;;;;;;20.12;47.64;99760.47;41327407;28;20498;-73
2024/01/17 03:04:24;;;;;;;7.13;5.30;;;;;;;20.09;47.19;99768.59;41230787;28;20129;-73
2024/01/17 03:24:24;;;;;;;7.28;5.47;;;;;;;20.05;47.09;99761.94;41326009;28;20072;-73
2024/01/17 03:44:25;;;;;;;7.13;5.47;;;;;;;20.08;47.06;99732.75;41423709;28;20064;-75
2024/01/17 04:04:27;;;;;;;6.35;4.80;;;;;;;20.05;47.20;99712.00;41435489;28;20528;-73
2024/01/17 04:24:29;;;;;;;7.05;4.45;;;;;;;20.01;47.24;99695.66;41430493;28;20046;-74
2024/01/17 04:44:32;;;;;;;6.03;5.03;;;;;;;20.02;46.95;99643.91;41435112;28;20054;-75
2024/01/17 05:04:33;;;;;;;5.90;4.95;;;;;;;20.15;46.84;99649.78;41400479;28;20175;-73
2024/01/17 05:24:33;;;;;;;7.30;5.00;;;;;;;20.72;45.08;99639.69;41359434;28;20156;-72
2024/01/17 05:44:34;;;;;;;6.53;5.10;;;;;;;21.06;45.80;99657.78;41374483;28;20042;-72
2024/01/17 06:04:34;;;;;;;17.70;8.45;;;;;;;19.93;44.21;99621.88;41378532;28;20053;-78
2024/01/17 06:24:36;;;;;;;15.35;8.98;;;;;;;20.58;39.57;99618.97;41424768;28;20417;-82
2024/01/17 06:44:36;;;;;;;14.00;7.80;;;;;;;20.69;38.64;99636.47;41497385;28;20112;-77
2024/01/17 07:04:40;;;;;;;16.80;7.25;;;;;;;21.22;40.61;99604.59;41477258;28;20064;-77
2024/01/17 07:24:45;;;;;;;9.55;5.78;;;;;;;21.43;41.89;99580.75;41471137;28;20043;-76
2024/01/17 07:44:45;;;;;;;10.70;5.72;;;;;;;21.24;41.43;99571.06;41354526;28;20053;-74
2024/01/17 08:04:45;;;;;;;8.00;5.22;;;;;;;21.34;41.81;99565.78;41398619;28;20410;-74
2024/01/17 08:24:53;;;;;;;7.35;5.10;;;;;;;21.27;42.32;99564.69;41447647;28;20038;-77
2024/01/17 08:44:53;;;;;;;6.50;5.10;;;;;;;21.36;41.75;99547.22;41453685;28;20042;-80
2024/01/17 09:04:53;;;;;;;8.07;4.90;;;;;;;21.31;42.37;99534.47;41430330;28;20038;-73
2024/01/17 09:24:54;;;;;;;5.60;4.70;;;;;;;21.13;42.27;99501.91;41415384;28;20038;-74
2024/01/17 09:44:54;;;;;;;6.57;4.30;;;;;;;21.15;42.25;99442.06;41376613;28;20038;-72
2024/01/17 10:04:58;;;;;;;6.22;4.18;;;;;;;21.07;42.07;99388.34;41366873;28;22160;-73
2024/01/17 10:25:00;;;;;;;5.95;4.28;;;;;;;21.14;42.12;99364.06;41371207;28;20053;-73
2024/01/17 10:45:00;;;;;;;5.93;4.20;;;;;;;21.04;41.81;99317.53;41369523;28;20031;-74
2024/01/17 11:05:12;;;;;;;4.85;3.85;;;;;;;21.02;42.05;99264.25;41384413;28;20125;-74
2024/01/17 11:26:07;;;;;;;5.20;4.22;;;;;;;20.98;41.85;99199.69;41375512;28;20046;-74
2024/01/17 11:46:09;;;;;;;4.57;3.75;;;;;;;21.00;41.59;99168.00;41294134;28;20046;-73
2024/01/17 12:06:11;;;;;;;4.07;3.40;;;;;;;20.98;41.57;99141.81;41404542;28;20037;-73
2024/01/17 12:26:11;;;;;;;4.18;3.45;;;;;;;20.97;41.22;99103.34;41426615;28;20065;-74
2024/01/17 12:46:12;;;;;;;4.22;3.60;;;;;;;20.92;41.15;99064.31;41469386;28;20041;-74
2024/01/17 13:06:13;;;;;;;5.00;3.35;;;;;;;20.92;40.58;99029.25;41460982;28;20096;-73
2024/01/17 13:26:13;;;;;;;6.55;3.50;;;;;;;21.02;41.46;99014.22;41387553;28;20533;-73
2024/01/17 13:46:14;;;;;;;5.53;3.75;;;;;;;20.82;41.00;98989.03;41438956;28;20118;-72
2024/01/17 14:06:16;;;;;;;6.53;3.17;;;;;;;21.17;40.38;98974.22;41362931;28;20054;-72
2024/01/17 14:26:18;;;;;;;3.97;3.30;;;;;;;21.05;41.20;98934.97;41368980;28;20042;-72
2024/01/17 14:46:19;;;;;;;5.65;3.92;;;;;;;20.94;41.48;98920.22;41386939;28;20462;-73
2024/01/17 15:06:23;;;;;;;6.88;3.60;;;;;;;20.93;41.24;98901.97;41390058;28;20045;-71
2024/01/17 15:26:26;;;;;;;4.65;3.60;;;;;;;20.83;41.63;98930.19;41365723;28;20045;-70
2024/01/17 15:46:27;;;;;;;5.20;3.90;;;;;;;20.72;41.74;98904.94;41355313;28;20096;-70
2024/01/17 16:06:28;;;;;;;4.22;3.80;;;;;;;20.66;41.90;98853.72;41350900;28;20050;-70
2024/01/17 16:26:29;;;;;;;5.72;4.55;;;;;;;20.63;42.77;98859.31;41345425;28;20175;-70
2024/01/17 16:46:29;;;;;;;6.10;4.60;;;;;;;20.61;43.21;98820.00;41356123;28;20100;-70
2024/01/17 17:06:31;;;;;;;4.88;4.07;;;;;;;20.61;42.99;98830.53;41408073;28;20056;-72
2024/01/17 17:26:37;;;;;;;14.13;5.30;;;;;;;20.57;43.37;98813.41;41398641;28;20046;-78
2024/01/17 17:46:39;;;;;;;;;;;;;;;21.07;46.37;98793.53;41407382;28;20057;-73
2024/01/17 18:06:39;;;;;;;22.20;9.20;;;;;;;21.19;46.35;98787.97;41413294;28;20004;-74
2024/01/17 18:26:39;;;;;;;36.63;13.80;;;;;;;21.37;50.49;98764.19;41393664;28;20113;-74
2024/01/17 18:46:43;;;;;;;30.83;14.48;;;;;;;21.15;50.19;98750.63;41423731;28;20042;-73
2024/01/17 19:06:44;;;;;;;29.10;11.65;;;;;;;20.93;49.54;98723.06;41331385;28;20061;-75
2024/01/17 19:26:45;;;;;;;25.02;10.95;;;;;;;20.78;49.40;98735.97;41298896;28;20038;-72
2024/01/17 19:46:47;;;;;;;24.05;11.05;;;;;;;20.76;48.96;98690.59;41410775;28;20085;-72
2024/01/17 20:06:48;;;;;;;23.83;10.50;;;;;;;20.62;48.75;98681.47;41406234;28;20109;-73
2024/01/17 20:26:48;;;;;;;20.30;10.10;;;;;;;20.52;47.54;98665.81;41402399;28;20148;-70
2024/01/17 20:46:49;;;;;;;16.77;10.40;;;;;;;20.52;47.54;98655.28;41400317;28;20078;-72
2024/01/17 21:06:49;;;;;;;16.98;9.55;;;;;;;20.48;47.81;98627.63;41422092;28;21074;-70
2024/01/17 21:26:50;;;;;;;18.23;9.30;;;;;;;20.45;47.67;98606.94;41414378;28;20058;-70
2024/01/17 21:46:50;;;;;;;12.25;8.38;;;;;;;20.41;48.01;98584.56;41415596;28;20046;-71
2024/01/17 22:06:51;;;;;;;14.38;8.55;;;;;;;20.38;48.39;98555.97;41397619;28;20053;-71
2024/01/17 22:26:52;;;;;;;11.68;8.18;;;;;;;20.38;48.91;98508.66;41384039;28;20053;-71
2024/01/17 22:46:52;;;;;;;12.13;8.65;;;;;;;20.30;48.66;98449.81;41387474;28;20039;-70
2024/01/17 23:06:53;;;;;;;13.07;8.52;;;;;;;20.27;48.83;98428.28;41345483;28;20054;-70
2024/01/17 23:26:53;;;;;;;13.10;8.38;;;;;;;20.22;48.70;98386.72;41374408;28;20145;-70
2024/01/17 23:46:53;;;;;;;11.30;8.18;;;;;;;20.22;48.89;98375.41;41372214;28;20038;-70
